createdAt,value
2023-01-21T00:00:11.856Z,0.00
2023-01-21T00:01:11.974Z,0.00
2023-01-21T00:02:11.844Z,0.00
2023-01-21T00:03:11.962Z,0.00
2023-01-21T00:04:11.812Z,0.00
2023-01-21T00:05:12.895Z,0.00
2023-01-21T00:06:11.753Z,0.00
2023-01-21T00:07:11.944Z,0.00
2023-01-21T00:08:11.714Z,0.00
2023-01-21T00:09:11.842Z,0.00
2023-01-21T00:10:11.779Z,0.00
2023-01-21T00:11:11.813Z,0.00
2023-01-21T00:12:11.714Z,0.00
2023-01-21T00:13:11.763Z,0.00
2023-01-21T00:14:11.677Z,0.00
2023-01-21T00:15:11.855Z,0.00
2023-01-21T00:16:11.785Z,0.00
2023-01-21T00:17:11.584Z,0.00
2023-01-21T00:18:11.799Z,0.00
2023-01-21T00:19:11.599Z,0.00
2023-01-21T00:20:11.706Z,0.00
2023-01-21T00:21:11.694Z,0.00
2023-01-21T00:22:11.567Z,0.00
2023-01-21T00:23:11.701Z,0.00
2023-01-21T00:24:11.533Z,0.00
2023-01-21T00:25:11.932Z,0.00
2023-01-21T00:26:11.511Z,0.00
2023-01-21T00:27:11.653Z,0.00
2023-01-21T00:28:11.483Z,0.00
2023-01-21T00:29:11.589Z,0.00
2023-01-21T00:30:11.635Z,0.00
2023-01-21T00:31:11.583Z,0.00
2023-01-21T00:32:11.470Z,0.00
2023-01-21T00:33:12.495Z,0.00
2023-01-21T00:34:11.441Z,0.00
2023-01-21T00:35:11.543Z,0.00
2023-01-21T00:36:11.416Z,0.00
2023-01-21T00:37:11.526Z,0.00
2023-01-21T00:38:11.357Z,0.00
2023-01-21T00:39:11.458Z,0.00
2023-01-21T00:40:11.393Z,0.00
2023-01-21T00:41:11.484Z,0.00
2023-01-21T00:42:11.511Z,0.00
2023-01-21T00:43:11.310Z,0.00
2023-01-21T00:44:11.464Z,0.00
2023-01-21T00:45:11.250Z,0.00
2023-01-21T00:46:11.617Z,0.00
2023-01-21T00:47:11.423Z,0.00
2023-01-21T00:48:11.235Z,0.00
2023-01-21T00:49:11.326Z,0.00
2023-01-21T00:50:11.210Z,0.00
2023-01-21T00:51:11.433Z,0.00
2023-01-21T00:52:11.469Z,0.00
2023-01-21T00:53:11.169Z,0.00
2023-01-21T00:54:11.214Z,0.00
2023-01-21T00:55:11.139Z,0.00
2023-01-21T00:56:11.253Z,0.00
2023-01-21T00:57:11.404Z,0.00
2023-01-21T00:58:11.235Z,0.00
2023-01-21T00:59:11.121Z,0.00
2023-01-21T01:00:11.341Z,0.00
2023-01-21T01:01:11.084Z,0.00
2023-01-21T01:02:11.193Z,0.00
2023-01-21T01:03:11.070Z,0.00
2023-01-21T01:04:11.194Z,0.00
2023-01-21T01:05:11.026Z,0.00
2023-01-21T01:06:11.140Z,0.00
2023-01-21T01:07:11.007Z,0.00
2023-01-21T01:08:11.058Z,0.00
2023-01-21T01:09:10.948Z,0.00
2023-01-21T01:10:11.129Z,0.00
2023-01-21T01:11:10.942Z,0.00
2023-01-21T01:12:11.149Z,0.00
2023-01-21T01:13:10.952Z,0.00
2023-01-21T01:14:11.004Z,0.00
2023-01-21T01:15:10.891Z,0.00
2023-01-21T01:16:11.116Z,0.00
2023-01-21T01:17:10.863Z,0.00
2023-01-21T01:18:11.085Z,0.00
2023-01-21T01:19:10.878Z,0.00
2023-01-21T01:20:10.889Z,0.00
2023-01-21T01:21:10.808Z,0.00
2023-01-21T01:22:11.003Z,0.00
2023-01-21T01:23:10.815Z,0.00
2023-01-21T01:24:10.974Z,0.00
2023-01-21T01:25:10.775Z,0.00
2023-01-21T01:26:10.863Z,0.00
2023-01-21T01:27:10.736Z,0.00
2023-01-21T01:28:10.850Z,0.00
2023-01-21T01:29:10.757Z,0.00
2023-01-21T01:30:10.901Z,0.00
2023-01-21T01:31:10.804Z,0.00
2023-01-21T01:32:10.895Z,0.00
2023-01-21T01:33:10.658Z,0.00
2023-01-21T01:34:10.938Z,0.00
2023-01-21T01:35:10.627Z,0.00
2023-01-21T01:36:10.760Z,0.00
2023-01-21T01:37:10.616Z,0.00
2023-01-21T01:38:10.741Z,0.00
2023-01-21T01:39:10.696Z,0.00
2023-01-21T01:40:10.640Z,0.00
2023-01-21T01:41:10.716Z,0.00
2023-01-21T01:42:10.595Z,0.00
2023-01-21T01:43:10.737Z,0.00
2023-01-21T01:44:10.652Z,0.00
2023-01-21T01:45:10.548Z,0.00
2023-01-21T01:46:10.695Z,0.00
2023-01-21T01:47:10.542Z,0.00
2023-01-21T01:48:10.567Z,0.00
2023-01-21T01:49:10.568Z,0.00
2023-01-21T01:50:10.535Z,0.00
2023-01-21T01:51:10.748Z,0.00
2023-01-21T01:52:10.464Z,0.00
2023-01-21T01:53:10.512Z,0.00
2023-01-21T01:54:10.461Z,0.00
2023-01-21T01:55:10.631Z,0.00
2023-01-21T01:56:10.450Z,0.00
2023-01-21T01:57:10.468Z,0.00
2023-01-21T01:58:10.375Z,0.00
2023-01-21T01:59:10.546Z,0.00
2023-01-21T02:00:10.372Z,0.00
2023-01-21T02:01:10.551Z,0.00
2023-01-21T02:02:10.367Z,0.00
2023-01-21T02:03:10.452Z,0.00
2023-01-21T02:04:10.324Z,0.00
2023-01-21T02:05:10.375Z,0.00
2023-01-21T02:06:10.304Z,0.00
2023-01-21T02:07:10.625Z,0.00
2023-01-21T02:08:10.363Z,0.00
2023-01-21T02:09:10.871Z,0.00
2023-01-21T02:10:10.482Z,0.00
2023-01-21T02:11:10.205Z,0.00
2023-01-21T02:12:10.507Z,0.00
2023-01-21T02:13:10.233Z,0.00
2023-01-21T02:14:10.263Z,0.00
2023-01-21T02:15:10.156Z,0.00
2023-01-21T02:16:10.460Z,0.00
2023-01-21T02:17:10.119Z,0.00
2023-01-21T02:18:13.157Z,0.00
2023-01-21T02:19:10.130Z,0.00
2023-01-21T02:20:10.180Z,0.00
2023-01-21T02:21:10.078Z,0.00
2023-01-21T02:22:10.214Z,0.00
2023-01-21T02:23:11.000Z,0.00
2023-01-21T02:24:10.169Z,0.00
2023-01-21T02:25:10.035Z,0.00
2023-01-21T02:26:10.236Z,0.00
2023-01-21T02:27:10.052Z,0.00
2023-01-21T02:28:11.582Z,0.00
2023-01-21T02:29:09.987Z,0.00
2023-01-21T02:30:10.228Z,0.00
2023-01-21T02:31:10.042Z,0.00
2023-01-21T02:32:10.168Z,0.00
2023-01-21T02:33:09.945Z,0.00
2023-01-21T02:34:10.193Z,0.00
2023-01-21T02:35:09.949Z,0.00
2023-01-21T02:36:10.108Z,0.00
2023-01-21T02:37:09.895Z,0.00
2023-01-21T02:38:10.112Z,0.00
2023-01-21T02:39:09.861Z,0.00
2023-01-21T02:40:10.085Z,0.00
2023-01-21T02:41:09.890Z,0.00
2023-01-21T02:42:09.947Z,0.00
2023-01-21T02:43:09.820Z,0.00
2023-01-21T02:44:10.125Z,0.00
2023-01-21T02:45:09.793Z,0.00
2023-01-21T02:46:09.910Z,0.00
2023-01-21T02:47:09.765Z,0.00
2023-01-21T02:48:09.860Z,0.00
2023-01-21T02:49:09.744Z,0.00
2023-01-21T02:50:09.910Z,0.00
2023-01-21T02:51:09.775Z,0.00
2023-01-21T02:52:09.903Z,0.00
2023-01-21T02:53:09.691Z,0.00
2023-01-21T02:54:09.923Z,0.00
2023-01-21T02:55:09.674Z,0.00
2023-01-21T02:56:09.877Z,0.00
2023-01-21T02:57:09.649Z,0.00
2023-01-21T02:58:09.839Z,0.00
2023-01-21T02:59:09.618Z,0.00
2023-01-21T03:00:09.854Z,0.00
2023-01-21T03:01:09.684Z,0.00
2023-01-21T03:02:09.750Z,0.00
2023-01-21T03:03:09.559Z,0.00
2023-01-21T03:04:09.699Z,0.00
2023-01-21T03:05:09.553Z,0.00
2023-01-21T03:06:09.702Z,0.00
2023-01-21T03:07:09.547Z,0.00
2023-01-21T03:08:09.758Z,0.00
2023-01-21T03:09:09.486Z,0.00
2023-01-21T03:10:09.638Z,0.00
2023-01-21T03:11:09.460Z,0.00
2023-01-21T03:12:09.644Z,0.00
2023-01-21T03:13:09.460Z,0.00
2023-01-21T03:14:09.708Z,0.00
2023-01-21T03:15:09.456Z,0.00
2023-01-21T03:16:09.721Z,0.00
2023-01-21T03:17:09.533Z,0.00
2023-01-21T03:18:09.415Z,0.00
2023-01-21T03:19:09.604Z,0.00
2023-01-21T03:20:09.426Z,0.00
2023-01-21T03:21:09.580Z,0.00
2023-01-21T03:22:09.367Z,0.00
2023-01-21T03:23:09.486Z,0.00
2023-01-21T03:24:09.359Z,0.00
2023-01-21T03:25:09.444Z,0.00
2023-01-21T03:26:09.315Z,0.00
2023-01-21T03:27:09.411Z,0.00
2023-01-21T03:28:09.296Z,0.00
2023-01-21T03:29:09.484Z,0.00
2023-01-21T03:30:09.260Z,0.00
2023-01-21T03:31:09.470Z,0.00
2023-01-21T03:32:09.260Z,0.00
2023-01-21T03:33:09.363Z,0.00
2023-01-21T03:34:09.251Z,0.00
2023-01-21T03:35:09.384Z,0.00
2023-01-21T03:36:09.242Z,0.00
2023-01-21T03:37:09.293Z,0.00
2023-01-21T03:38:09.207Z,0.00
2023-01-21T03:39:09.245Z,0.00
2023-01-21T03:40:09.142Z,0.00
2023-01-21T03:41:09.353Z,0.00
2023-01-21T03:42:09.152Z,0.00
2023-01-21T03:43:09.216Z,0.00
2023-01-21T03:44:09.105Z,0.00
2023-01-21T03:45:09.239Z,0.00
2023-01-21T03:46:09.104Z,0.00
2023-01-21T03:47:10.249Z,0.00
2023-01-21T03:48:09.255Z,0.00
2023-01-21T03:49:09.012Z,0.00
2023-01-21T03:50:09.103Z,0.00
2023-01-21T03:51:09.019Z,0.00
2023-01-21T03:52:09.106Z,0.00
2023-01-21T03:53:08.981Z,0.00
2023-01-21T03:54:09.225Z,0.00
2023-01-21T03:55:08.967Z,0.00
2023-01-21T03:56:09.112Z,0.00
2023-01-21T03:57:08.933Z,0.00
2023-01-21T03:58:09.032Z,0.00
2023-01-21T03:59:08.950Z,0.00
2023-01-21T04:00:09.039Z,0.00
2023-01-21T04:01:08.981Z,0.00
2023-01-21T04:02:09.104Z,0.00
2023-01-21T04:03:08.908Z,0.00
2023-01-21T04:04:09.007Z,0.00
2023-01-21T04:05:08.844Z,0.00
2023-01-21T04:06:08.961Z,0.00
2023-01-21T04:07:08.817Z,0.00
2023-01-21T04:08:08.885Z,0.00
2023-01-21T04:09:08.966Z,0.00
2023-01-21T04:10:08.767Z,0.00
2023-01-21T04:11:08.935Z,0.00
2023-01-21T04:12:08.726Z,0.00
2023-01-21T04:13:08.837Z,0.00
2023-01-21T04:14:08.810Z,0.00
2023-01-21T04:15:08.789Z,0.00
2023-01-21T04:16:08.871Z,0.00
2023-01-21T04:17:08.704Z,0.00
2023-01-21T04:18:08.746Z,0.00
2023-01-21T04:19:08.669Z,0.00
2023-01-21T04:20:08.903Z,0.00
2023-01-21T04:21:08.640Z,0.00
2023-01-21T04:22:08.880Z,0.00
2023-01-21T04:23:08.619Z,0.00
2023-01-21T04:24:08.687Z,0.00
2023-01-21T04:25:08.633Z,0.00
2023-01-21T04:26:08.797Z,0.00
2023-01-21T04:27:08.602Z,0.00
2023-01-21T04:28:08.697Z,0.00
2023-01-21T04:29:08.550Z,0.00
2023-01-21T04:30:08.742Z,0.00
2023-01-21T04:31:08.614Z,0.00
2023-01-21T04:32:08.653Z,0.00
2023-01-21T04:33:08.550Z,0.00
2023-01-21T04:34:08.644Z,0.00
2023-01-21T04:35:08.696Z,0.00
2023-01-21T04:36:08.466Z,0.00
2023-01-21T04:37:08.646Z,0.00
2023-01-21T04:38:08.440Z,0.00
2023-01-21T04:39:08.619Z,0.00
2023-01-21T04:40:08.598Z,0.00
2023-01-21T04:41:08.440Z,0.00
2023-01-21T04:42:08.581Z,0.00
2023-01-21T04:43:08.404Z,0.00
2023-01-21T04:44:08.521Z,0.00
2023-01-21T04:45:08.609Z,0.00
2023-01-21T04:46:08.392Z,0.00
2023-01-21T04:47:08.603Z,0.00
2023-01-21T04:48:08.292Z,0.00
2023-01-21T04:49:08.561Z,0.00
2023-01-21T04:50:08.281Z,0.00
2023-01-21T04:51:08.412Z,0.00
2023-01-21T04:52:08.295Z,0.00
2023-01-21T04:53:08.408Z,0.00
2023-01-21T04:54:08.230Z,0.00
2023-01-21T04:55:08.334Z,0.00
2023-01-21T04:56:08.202Z,0.00
2023-01-21T04:57:08.327Z,0.00
2023-01-21T04:58:08.209Z,0.00
2023-01-21T04:59:08.349Z,0.00
2023-01-21T05:00:08.139Z,0.00
2023-01-21T05:01:08.376Z,0.00
2023-01-21T05:02:08.168Z,0.00
2023-01-21T05:03:08.411Z,0.00
2023-01-21T05:04:08.147Z,0.00
2023-01-21T05:05:08.399Z,0.00
2023-01-21T05:06:08.092Z,0.00
2023-01-21T05:07:08.297Z,0.00
2023-01-21T05:08:08.074Z,0.00
2023-01-21T05:09:08.276Z,0.00
2023-01-21T05:10:08.022Z,0.00
2023-01-21T05:11:08.167Z,0.00
2023-01-21T05:12:08.022Z,0.00
2023-01-21T05:13:08.243Z,0.00
2023-01-21T05:14:07.992Z,0.00
2023-01-21T05:15:08.247Z,0.00
2023-01-21T05:16:08.046Z,0.00
2023-01-21T05:17:08.165Z,0.00
2023-01-21T05:18:07.955Z,0.00
2023-01-21T05:19:08.182Z,0.00
2023-01-21T05:20:07.947Z,0.00
2023-01-21T05:21:08.113Z,0.00
2023-01-21T05:22:07.905Z,0.00
2023-01-21T05:23:08.106Z,0.00
2023-01-21T05:24:07.908Z,0.00
2023-01-21T05:25:08.060Z,0.00
2023-01-21T05:26:07.858Z,0.00
2023-01-21T05:27:08.137Z,0.00
2023-01-21T05:28:07.823Z,0.00
2023-01-21T05:29:08.034Z,0.00
2023-01-21T05:30:07.851Z,0.00
2023-01-21T05:31:08.141Z,0.00
2023-01-21T05:32:08.027Z,0.00
2023-01-21T05:33:07.780Z,0.00
2023-01-21T05:34:07.864Z,0.00
2023-01-21T05:35:07.772Z,0.00
2023-01-21T05:36:07.909Z,0.00
2023-01-21T05:37:07.989Z,0.00
2023-01-21T05:38:07.748Z,0.00
2023-01-21T05:39:07.903Z,0.00
2023-01-21T05:40:07.716Z,0.00
2023-01-21T05:41:07.852Z,0.00
2023-01-21T05:42:07.797Z,0.00
2023-01-21T05:43:07.670Z,0.00
2023-01-21T05:44:07.806Z,0.00
2023-01-21T05:45:07.645Z,0.00
2023-01-21T05:46:07.888Z,0.00
2023-01-21T05:47:07.620Z,0.00
2023-01-21T05:48:07.733Z,0.00
2023-01-21T05:49:07.617Z,0.00
2023-01-21T05:50:07.782Z,0.00
2023-01-21T05:51:07.714Z,0.00
2023-01-21T05:52:07.776Z,0.00
2023-01-21T05:53:07.543Z,0.00
2023-01-21T05:54:07.841Z,0.00
2023-01-21T05:55:07.814Z,0.00
2023-01-21T05:56:07.634Z,0.00
2023-01-21T05:57:07.539Z,0.00
2023-01-21T05:58:07.657Z,0.00
2023-01-21T05:59:07.478Z,0.00
2023-01-21T06:00:07.573Z,0.00
2023-01-21T06:01:07.457Z,0.00
2023-01-21T06:02:07.586Z,0.00
2023-01-21T06:03:07.446Z,0.00
2023-01-21T06:06:04.107Z,0.00
2023-01-21T06:07:05.106Z,0.00
2023-01-21T06:08:05.220Z,0.00
2023-01-21T06:09:05.157Z,0.00
2023-01-21T06:10:05.127Z,0.00
2023-01-21T06:11:05.051Z,0.00
2023-01-21T06:12:05.189Z,0.00
2023-01-21T06:13:05.092Z,0.00
2023-01-21T06:14:05.088Z,0.00
2023-01-21T06:15:05.008Z,0.00
2023-01-21T06:16:05.112Z,0.00
2023-01-21T06:17:04.985Z,0.00
2023-01-21T06:18:05.170Z,0.00
2023-01-21T06:19:04.985Z,0.00
2023-01-21T06:20:04.994Z,0.00
2023-01-21T06:21:04.956Z,0.00
2023-01-21T06:22:05.749Z,0.00
2023-01-21T06:23:04.912Z,0.00
2023-01-21T06:24:05.128Z,0.00
2023-01-21T06:25:04.941Z,0.00
2023-01-21T06:26:04.924Z,0.00
2023-01-21T06:27:04.958Z,0.00
2023-01-21T06:28:05.102Z,0.00
2023-01-21T06:29:04.842Z,0.00
2023-01-21T06:30:05.057Z,0.00
2023-01-21T06:31:04.901Z,0.00
2023-01-21T06:32:05.110Z,0.00
2023-01-21T06:33:04.799Z,0.00
2023-01-21T06:34:04.887Z,0.00
2023-01-21T06:35:04.764Z,0.00
2023-01-21T06:36:04.934Z,0.00
2023-01-21T06:37:04.803Z,0.00
2023-01-21T06:38:04.912Z,0.00
2023-01-21T06:39:04.892Z,0.00
2023-01-21T06:40:04.684Z,0.00
2023-01-21T06:41:04.916Z,4.00
2023-01-21T06:42:04.661Z,4.00
2023-01-21T06:43:04.876Z,0.00
2023-01-21T06:44:04.643Z,4.00
2023-01-21T06:45:04.888Z,4.00
2023-01-21T06:46:04.703Z,4.00
2023-01-21T06:47:04.895Z,4.00
2023-01-21T06:48:04.621Z,4.00
2023-01-21T06:49:04.800Z,8.00
2023-01-21T06:50:04.573Z,4.00
2023-01-21T06:51:04.911Z,4.00
2023-01-21T06:52:04.577Z,4.00
2023-01-21T06:53:04.734Z,4.00
2023-01-21T06:54:04.520Z,8.00
2023-01-21T06:55:05.149Z,8.00
2023-01-21T06:56:04.488Z,12.00
2023-01-21T06:57:04.645Z,12.00
2023-01-21T06:58:05.106Z,12.00
2023-01-21T06:59:04.582Z,16.00
2023-01-21T07:00:04.648Z,20.00
2023-01-21T07:01:04.457Z,20.00
2023-01-21T07:02:04.682Z,20.00
2023-01-21T07:03:04.602Z,20.00
2023-01-21T07:04:04.522Z,20.00
2023-01-21T07:05:04.554Z,24.00
2023-01-21T07:06:04.394Z,24.00
2023-01-21T07:07:04.616Z,32.00
2023-01-21T07:08:04.388Z,32.00
2023-01-21T07:09:04.476Z,40.00
2023-01-21T07:10:04.334Z,40.00
2023-01-21T07:11:04.597Z,40.00
2023-01-21T07:12:04.318Z,44.00
2023-01-21T07:13:04.782Z,48.00
2023-01-21T07:14:04.466Z,52.00
2023-01-21T07:15:04.658Z,56.00
2023-01-21T07:16:06.855Z,60.00
2023-01-21T07:17:05.531Z,64.00
2023-01-21T07:18:04.324Z,68.00
2023-01-21T07:19:05.694Z,72.00
2023-01-21T07:20:04.506Z,80.00
2023-01-21T07:21:05.531Z,84.00
2023-01-21T07:22:04.181Z,92.00
2023-01-21T07:23:04.419Z,108.00
2023-01-21T07:24:04.191Z,116.00
2023-01-21T07:25:04.342Z,120.00
2023-01-21T07:26:04.272Z,120.00
2023-01-21T07:27:04.148Z,124.00
2023-01-21T07:28:04.365Z,140.00
2023-01-21T07:29:05.564Z,156.00
2023-01-21T07:30:04.308Z,160.00
2023-01-21T07:31:04.450Z,152.00
2023-01-21T07:32:04.189Z,160.00
2023-01-21T07:33:04.351Z,160.00
2023-01-21T07:34:04.821Z,156.00
2023-01-21T07:35:04.214Z,156.00
2023-01-21T07:36:04.782Z,164.00
2023-01-21T07:37:04.137Z,156.00
2023-01-21T07:38:04.016Z,148.00
2023-01-21T07:39:04.164Z,148.00
2023-01-21T07:40:04.002Z,144.00
2023-01-21T07:41:04.215Z,148.00
2023-01-21T07:42:03.958Z,152.00
2023-01-21T07:43:04.057Z,144.00
2023-01-21T07:44:03.924Z,140.00
2023-01-21T07:45:04.187Z,140.00
2023-01-21T07:46:04.780Z,140.00
2023-01-21T07:47:04.121Z,140.00
2023-01-21T07:48:03.884Z,148.00
2023-01-21T07:49:04.100Z,144.00
2023-01-21T07:50:03.843Z,148.00
2023-01-21T07:51:04.142Z,152.00
2023-01-21T07:52:03.861Z,152.00
2023-01-21T07:53:04.022Z,152.00
2023-01-21T07:54:03.793Z,156.00
2023-01-21T07:55:04.033Z,152.00
2023-01-21T07:56:03.793Z,152.00
2023-01-21T07:57:04.063Z,152.00
2023-01-21T07:58:03.794Z,160.00
2023-01-21T07:59:04.216Z,172.00
2023-01-21T08:00:03.780Z,176.00
2023-01-21T08:01:03.977Z,180.00
2023-01-21T08:02:04.137Z,172.00
2023-01-21T08:03:03.757Z,180.00
2023-01-21T08:04:04.655Z,196.00
2023-01-21T08:05:03.715Z,192.00
2023-01-21T08:06:03.790Z,196.00
2023-01-21T08:07:03.685Z,196.00
2023-01-21T08:08:04.186Z,204.00
2023-01-21T08:09:03.682Z,192.00
2023-01-21T08:10:03.855Z,196.00
2023-01-21T08:11:03.625Z,208.00
2023-01-21T08:12:04.007Z,224.00
2023-01-21T08:13:03.727Z,216.00
2023-01-21T08:14:03.958Z,208.00
2023-01-21T08:15:03.588Z,256.00
2023-01-21T08:16:03.820Z,260.00
2023-01-21T08:17:03.727Z,240.00
2023-01-21T08:18:04.669Z,244.00
2023-01-21T08:19:04.016Z,260.00
2023-01-21T08:20:03.738Z,284.00
2023-01-21T08:21:03.527Z,288.00
2023-01-21T08:22:03.625Z,292.00
2023-01-21T08:23:03.495Z,296.00
2023-01-21T08:24:03.724Z,312.00
2023-01-21T08:25:03.514Z,332.00
2023-01-21T08:26:03.789Z,328.00
2023-01-21T08:27:03.537Z,356.00
2023-01-21T08:28:03.657Z,380.00
2023-01-21T08:29:03.461Z,368.00
2023-01-21T08:30:03.962Z,372.00
2023-01-21T08:31:03.440Z,372.00
2023-01-21T08:32:03.744Z,396.00
2023-01-21T08:33:05.553Z,432.00
2023-01-21T08:34:03.475Z,416.00
2023-01-21T08:35:03.446Z,396.00
2023-01-21T08:36:03.617Z,404.00
2023-01-21T08:37:03.413Z,392.00
2023-01-21T08:38:03.523Z,384.00
2023-01-21T08:39:03.284Z,376.00
2023-01-21T08:40:03.530Z,376.00
2023-01-21T08:41:03.254Z,352.00
2023-01-21T08:42:03.452Z,348.00
2023-01-21T08:43:03.504Z,348.00
2023-01-21T08:44:03.506Z,340.00
2023-01-21T08:45:03.690Z,344.00
2023-01-21T08:46:04.177Z,344.00
2023-01-21T08:47:03.506Z,336.00
2023-01-21T08:48:03.799Z,356.00
2023-01-21T08:49:03.285Z,360.00
2023-01-21T08:50:03.140Z,376.00
2023-01-21T08:51:03.341Z,380.00
2023-01-21T08:52:03.145Z,376.00
2023-01-21T08:53:03.323Z,376.00
2023-01-21T08:54:03.175Z,384.00
2023-01-21T08:55:03.230Z,396.00
2023-01-21T08:56:03.057Z,428.00
2023-01-21T08:57:03.193Z,420.00
2023-01-21T08:58:03.099Z,432.00
2023-01-21T08:59:03.155Z,456.00
2023-01-21T09:00:03.033Z,452.00
2023-01-21T09:01:03.283Z,448.00
2023-01-21T09:02:03.013Z,460.00
2023-01-21T09:03:03.145Z,504.00
2023-01-21T09:04:03.034Z,520.00
2023-01-21T09:05:03.211Z,524.00
2023-01-21T09:06:03.030Z,588.00
2023-01-21T09:07:03.223Z,600.00
2023-01-21T09:08:03.727Z,568.00
2023-01-21T09:09:03.178Z,568.00
2023-01-21T09:10:03.222Z,576.00
2023-01-21T09:11:03.101Z,580.00
2023-01-21T09:12:02.861Z,576.00
2023-01-21T09:13:03.141Z,564.00
2023-01-21T09:14:03.662Z,564.00
2023-01-21T09:15:03.066Z,564.00
2023-01-21T09:16:03.689Z,584.00
2023-01-21T09:17:03.532Z,592.00
2023-01-21T09:18:03.200Z,592.00
2023-01-21T09:19:04.448Z,576.00
2023-01-21T09:20:03.835Z,572.00
2023-01-21T09:21:03.359Z,544.00
2023-01-21T09:22:03.441Z,532.00
2023-01-21T09:23:03.011Z,536.00
2023-01-21T09:24:03.964Z,532.00
2023-01-21T09:25:03.338Z,516.00
2023-01-21T09:26:03.117Z,520.00
2023-01-21T09:27:03.528Z,544.00
2023-01-21T09:28:03.629Z,552.00
2023-01-21T09:29:04.319Z,524.00
2023-01-21T09:30:03.317Z,520.00
2023-01-21T09:31:03.663Z,560.00
2023-01-21T09:32:02.940Z,608.00
2023-01-21T09:33:03.029Z,668.00
2023-01-21T09:34:03.228Z,732.00
2023-01-21T09:35:03.126Z,768.00
2023-01-21T09:36:03.437Z,764.00
2023-01-21T09:37:03.257Z,752.00
2023-01-21T09:38:03.482Z,740.00
2023-01-21T09:39:02.841Z,724.00
2023-01-21T09:40:02.642Z,712.00
2023-01-21T09:41:03.775Z,732.00
2023-01-21T09:42:02.731Z,764.00
2023-01-21T09:43:02.935Z,824.00
2023-01-21T09:44:02.547Z,820.00
2023-01-21T09:45:03.113Z,872.00
2023-01-21T09:46:04.191Z,888.00
2023-01-21T09:47:02.493Z,852.00
2023-01-21T09:48:02.674Z,856.00
2023-01-21T09:49:02.430Z,844.00
2023-01-21T09:50:02.596Z,864.00
2023-01-21T09:51:02.761Z,948.00
2023-01-21T09:52:02.525Z,920.00
2023-01-21T09:53:02.595Z,812.00
2023-01-21T09:54:02.358Z,788.00
2023-01-21T09:55:02.671Z,760.00
2023-01-21T09:56:02.327Z,776.00
2023-01-21T09:57:42.666Z,800.00
2023-01-21T09:58:10.231Z,848.00
